DLH11D LOWW-LOWW
Flight info
| Callsign | DLH11D |
|---|---|
| Flight time | 0h 12m |
| Altitude | 4000 |
| Route | LANUX6D LANUX LANUX7W |
| Aircraft | A343/M-V/N |
Departure
| Time | 2026-04-26 11:27 |
|---|---|
| Airport | Vienna International Airport (LOWW) |
Arrival
| Time | 2026-04-26 11:40 |
|---|---|
| Airport | Vienna International Airport (LOWW) |
| Time | Latitude | Longitude | Altitude | Speed | Heading |
|---|---|---|---|---|---|
| 2026-04-26 11:20 | 48.11395 | 16.57254 | 625 ft | 0 kts | 206° |
| 2026-04-26 11:24 | 48.11371 | 16.57237 | 616 ft | 10 kts | 204° |
| 2026-04-26 11:24 | 48.11311 | 16.57255 | 629 ft | 8 kts | 131° |
| 2026-04-26 11:24 | 48.11283 | 16.57331 | 625 ft | 10 kts | 117° |
| 2026-04-26 11:24 | 48.11243 | 16.57456 | 620 ft | 16 kts | 117° |
| 2026-04-26 11:25 | 48.11187 | 16.57635 | 623 ft | 22 kts | 115° |
| 2026-04-26 11:25 | 48.11120 | 16.57827 | 625 ft | 13 kts | 117° |
| 2026-04-26 11:25 | 48.11036 | 16.57937 | 626 ft | 20 kts | 160° |
| 2026-04-26 11:25 | 48.10882 | 16.58005 | 627 ft | 27 kts | 163° |
| 2026-04-26 11:26 | 48.10678 | 16.58087 | 627 ft | 32 kts | 165° |
| 2026-04-26 11:26 | 48.10566 | 16.58203 | 625 ft | 6 kts | 66° |
| 2026-04-26 11:26 | 48.10622 | 16.58247 | 622 ft | 12 kts | 17° |
| 2026-04-26 11:26 | 48.10717 | 16.58280 | 621 ft | 16 kts | 12° |
| 2026-04-26 11:27 | 48.10849 | 16.58290 | 626 ft | 27 kts | 348° |
| 2026-04-26 11:27 | 48.11214 | 16.58138 | 627 ft | 95 kts | 343° |
| 2026-04-26 11:27 | 48.12135 | 16.57734 | 934 ft | 151 kts | 343° |
| 2026-04-26 11:27 | 48.13196 | 16.57282 | 1849 ft | 164 kts | 344° |
| 2026-04-26 11:28 | 48.14295 | 16.56701 | 2744 ft | 174 kts | 329° |
| 2026-04-26 11:28 | 48.14894 | 16.55768 | 3077 ft | 186 kts | 303° |
| 2026-04-26 11:28 | 48.14854 | 16.53269 | 3171 ft | 206 kts | 245° |
| 2026-04-26 11:28 | 48.13719 | 16.51925 | 3149 ft | 218 kts | 200° |
| 2026-04-26 11:29 | 48.12222 | 16.52056 | 3166 ft | 221 kts | 155° |
| 2026-04-26 11:29 | 48.10999 | 16.53602 | 3173 ft | 219 kts | 128° |
| 2026-04-26 11:29 | 48.10077 | 16.55247 | 3166 ft | 221 kts | 126° |
| 2026-04-26 11:29 | 48.09109 | 16.56943 | 3145 ft | 222 kts | 128° |
| 2026-04-26 11:30 | 48.08034 | 16.58740 | 3158 ft | 223 kts | 131° |
| 2026-04-26 11:30 | 48.07219 | 16.59677 | 3142 ft | 224 kts | 151° |
| 2026-04-26 11:30 | 48.05242 | 16.60725 | 3164 ft | 228 kts | 164° |
| 2026-04-26 11:30 | 48.03710 | 16.61357 | 3143 ft | 229 kts | 165° |
| 2026-04-26 11:31 | 48.02181 | 16.61980 | 3147 ft | 227 kts | 164° |
| 2026-04-26 11:31 | 48.00658 | 16.62608 | 3145 ft | 227 kts | 163° |
| 2026-04-26 11:31 | 47.99129 | 16.63248 | 3165 ft | 228 kts | 163° |
| 2026-04-26 11:31 | 47.97589 | 16.63645 | 3109 ft | 223 kts | 188° |
| 2026-04-26 11:32 | 47.96324 | 16.62527 | 3020 ft | 210 kts | 239° |
| 2026-04-26 11:32 | 47.96056 | 16.60510 | 2921 ft | 192 kts | 282° |
| 2026-04-26 11:32 | 47.96094 | 16.58569 | 2837 ft | 197 kts | 257° |
| 2026-04-26 11:32 | 47.95127 | 16.57083 | 2629 ft | 210 kts | 201° |
| 2026-04-26 11:33 | 47.93807 | 16.57322 | 2744 ft | 191 kts | 140° |
| 2026-04-26 11:33 | 47.93006 | 16.58842 | 2952 ft | 187 kts | 117° |
| 2026-04-26 11:33 | 47.92375 | 16.60379 | 3109 ft | 154 kts | 105° |
| 2026-04-26 11:33 | 47.92246 | 16.61797 | 3138 ft | 129 kts | 71° |
| 2026-04-26 11:34 | 47.92603 | 16.62948 | 3174 ft | 121 kts | 47° |
| 2026-04-26 11:34 | 47.93254 | 16.63591 | 3118 ft | 112 kts | 357° |
| 2026-04-26 11:34 | 47.94017 | 16.63465 | 3190 ft | 110 kts | 349° |
| 2026-04-26 11:34 | 47.94534 | 16.63375 | 3131 ft | 113 kts | 356° |
| 2026-04-26 11:35 | 47.95319 | 16.63591 | 2907 ft | 116 kts | 4° |
| 2026-04-26 11:35 | 47.96094 | 16.63779 | 2804 ft | 112 kts | 5° |
| 2026-04-26 11:35 | 47.96873 | 16.63815 | 2736 ft | 114 kts | 352° |
| 2026-04-26 11:35 | 47.97636 | 16.63532 | 2664 ft | 113 kts | 346° |
| 2026-04-26 11:36 | 47.98412 | 16.63288 | 2744 ft | 115 kts | 351° |
| 2026-04-26 11:36 | 47.99236 | 16.63082 | 2570 ft | 118 kts | 349° |
| 2026-04-26 11:36 | 48.00002 | 16.62829 | 2472 ft | 110 kts | 349° |
| 2026-04-26 11:36 | 48.00745 | 16.62556 | 2332 ft | 111 kts | 346° |
| 2026-04-26 11:37 | 48.01488 | 16.62240 | 2181 ft | 110 kts | 345° |
| 2026-04-26 11:37 | 48.02216 | 16.61932 | 2020 ft | 108 kts | 345° |
| 2026-04-26 11:37 | 48.02946 | 16.61630 | 1877 ft | 110 kts | 345° |
| 2026-04-26 11:37 | 48.03677 | 16.61321 | 1729 ft | 108 kts | 346° |
| 2026-04-26 11:38 | 48.04482 | 16.60983 | 1552 ft | 112 kts | 346° |
| 2026-04-26 11:38 | 48.05158 | 16.60698 | 1413 ft | 111 kts | 346° |
| 2026-04-26 11:38 | 48.05893 | 16.60387 | 1271 ft | 108 kts | 345° |
| 2026-04-26 11:38 | 48.06612 | 16.60079 | 1071 ft | 106 kts | 343° |
| 2026-04-26 11:39 | 48.07330 | 16.59755 | 947 ft | 108 kts | 346° |
| 2026-04-26 11:39 | 48.08122 | 16.59422 | 786 ft | 106 kts | 346° |
| 2026-04-26 11:39 | 48.08779 | 16.59154 | 662 ft | 111 kts | 346° |
| 2026-04-26 11:39 | 48.09493 | 16.58863 | 628 ft | 96 kts | 344° |
| 2026-04-26 11:40 | 48.09964 | 16.58668 | 623 ft | 43 kts | 345° |
| 2026-04-26 11:40 | 48.10167 | 16.58581 | 625 ft | 26 kts | 344° |
| 2026-04-26 11:40 | 48.10391 | 16.58490 | 622 ft | 27 kts | 345° |
| 2026-04-26 11:40 | 48.10533 | 16.58431 | 622 ft | 28 kts | 343° |
| 2026-04-26 11:41 | 48.10722 | 16.58347 | 623 ft | 29 kts | 346° |
| 2026-04-26 11:42 | 48.11843 | 16.57818 | 629 ft | 24 kts | 302° |
| 2026-04-26 11:43 | 48.11860 | 16.57703 | 625 ft | 4 kts | 267° |
| 2026-04-26 11:43 | 48.11890 | 16.57577 | 627 ft | 11 kts | 329° |
| 2026-04-26 11:43 | 48.11955 | 16.57563 | 622 ft | 10 kts | 7° |
| 2026-04-26 11:43 | 48.11983 | 16.57641 | 624 ft | 15 kts | 97° |
| 2026-04-26 11:44 | 48.11889 | 16.57857 | 629 ft | 38 kts | 156° |
| 2026-04-26 11:44 | 48.11375 | 16.58100 | 625 ft | 122 kts | 166° |
| 2026-04-26 11:44 | 48.10304 | 16.58521 | 829 ft | 183 kts | 168° |
| 2026-04-26 11:44 | 48.08960 | 16.59044 | 1566 ft | 211 kts | 168° |
| 2026-04-26 11:45 | 48.07495 | 16.59559 | 2373 ft | 214 kts | 171° |
| 2026-04-26 11:45 | 48.06188 | 16.59956 | 2828 ft | 178 kts | 173° |
| 2026-04-26 11:45 | 48.04949 | 16.60251 | 3052 ft | 183 kts | 178° |
| 2026-04-26 11:45 | 48.03691 | 16.60459 | 3131 ft | 185 kts | 178° |
| 2026-04-26 11:46 | 48.02463 | 16.61000 | 3112 ft | 185 kts | 150° |
| 2026-04-26 11:46 | 48.01595 | 16.62348 | 3092 ft | 178 kts | 111° |
| 2026-04-26 11:46 | 48.01633 | 16.64037 | 3057 ft | 165 kts | 60° |
| 2026-04-26 11:46 | 48.02421 | 16.65198 | 2749 ft | 159 kts | 22° |
| 2026-04-26 11:47 | 48.03451 | 16.65504 | 2620 ft | 141 kts | 11° |
| 2026-04-26 11:47 | 48.04305 | 16.66032 | 2470 ft | 127 kts | 32° |
| 2026-04-26 11:47 | 48.04909 | 16.66942 | 2202 ft | 120 kts | 43° |
| 2026-04-26 11:47 | 48.05530 | 16.67776 | 2127 ft | 123 kts | 28° |
| 2026-04-26 11:48 | 48.06360 | 16.68123 | 2068 ft | 124 kts | 4° |
| 2026-04-26 11:48 | 48.07179 | 16.67882 | 1947 ft | 126 kts | 338° |
| 2026-04-26 11:48 | 48.07654 | 16.66775 | 1769 ft | 129 kts | 304° |
| 2026-04-26 11:48 | 48.08079 | 16.65638 | 1683 ft | 124 kts | 313° |
| 2026-04-26 11:49 | 48.08526 | 16.64539 | 1550 ft | 123 kts | 313° |
| 2026-04-26 11:49 | 48.08961 | 16.63436 | 1406 ft | 124 kts | 302° |
| 2026-04-26 11:49 | 48.09306 | 16.62244 | 1308 ft | 124 kts | 307° |
| 2026-04-26 11:49 | 48.09761 | 16.61004 | 1101 ft | 117 kts | 308° |
| 2026-04-26 11:50 | 48.10052 | 16.60021 | 1027 ft | 116 kts | 307° |
| 2026-04-26 11:50 | 48.10435 | 16.58932 | 827 ft | 116 kts | 309° |
| 2026-04-26 11:50 | 48.10790 | 16.57855 | 681 ft | 114 kts | 309° |
| 2026-04-26 11:50 | 48.11142 | 16.56808 | 629 ft | 91 kts | 300° |
| 2026-04-26 11:51 | 48.11291 | 16.56383 | 626 ft | 60 kts | 298° |
| 2026-04-26 11:51 | 48.11496 | 16.55765 | 621 ft | 26 kts | 296° |
| 2026-04-26 11:51 | 48.11540 | 16.55615 | 629 ft | 25 kts | 295° |
| 2026-04-26 11:51 | 48.11645 | 16.55357 | 620 ft | 26 kts | 312° |
| 2026-04-26 11:52 | 48.11770 | 16.55189 | 629 ft | 23 kts | 321° |
| 2026-04-26 11:52 | 48.11920 | 16.55185 | 622 ft | 19 kts | 32° |
| 2026-04-26 11:52 | 48.11935 | 16.55297 | 624 ft | 9 kts | 117° |
| 2026-04-26 11:52 | 48.11897 | 16.55410 | 622 ft | 15 kts | 111° |
| 2026-04-26 11:53 | 48.11852 | 16.55585 | 623 ft | 21 kts | 115° |
| 2026-04-26 11:53 | 48.11783 | 16.55798 | 624 ft | 22 kts | 115° |
| 2026-04-26 11:53 | 48.11728 | 16.55966 | 629 ft | 10 kts | 116° |
| 2026-04-26 11:54 | 48.11738 | 16.56096 | 623 ft | 7 kts | 36° |
| 2026-04-26 11:54 | 48.11765 | 16.56123 | 629 ft | 1 kts | 33° |
| 2026-04-26 11:54 | 48.11767 | 16.56125 | 629 ft | 0 kts | 33° |